Terminal Aerodrome Forecast
Issued by NWS

Home | Current Version | Previous Version | Text Only | Print | Product List | Glossary On
Versions: 1 2 3 4 5 6 7 8 9 10 11 12 13 14 15 16 17 18 19 20 21
000
FTAK31 PAJN 302300
TAFAYA
TAF
PAYA 302323Z 0100/0124 08008KT P6SM SCT070
     FM010400 VRB04KT P6SM SCT070
     FM011700 09005KT P6SM SKC
      AMD LTD TO CLD VIS AND WIND 0101/0110=

USA.gov is the U.S. government's official web portal to all federal, state and local government web resources and services.